sensor_id;sensor_type;location;lat;lon;timestamp;pressure;altitude;pressure_sealevel;temperature
76713;BMP280;65640;43.154;25.658;2023-06-26T00:01:32;100258.06;;;20.73
76713;BMP280;65640;43.154;25.658;2023-06-26T00:03:59;100248.56;;;20.76
76713;BMP280;65640;43.154;25.658;2023-06-26T00:06:25;100250.53;;;20.79
76713;BMP280;65640;43.154;25.658;2023-06-26T00:08:52;100246.75;;;20.80
76713;BMP280;65640;43.154;25.658;2023-06-26T00:11:19;100245.91;;;20.76
76713;BMP280;65640;43.154;25.658;2023-06-26T00:13:44;100245.56;;;20.77
76713;BMP280;65640;43.154;25.658;2023-06-26T00:16:09;100241.19;;;20.85
76713;BMP280;65640;43.154;25.658;2023-06-26T00:18:35;100235.09;;;20.84
76713;BMP280;65640;43.154;25.658;2023-06-26T00:21:00;100232.09;;;20.70
76713;BMP280;65640;43.154;25.658;2023-06-26T00:23:26;100235.25;;;20.76
76713;BMP280;65640;43.154;25.658;2023-06-26T00:25:52;100239.44;;;20.73
76713;BMP280;65640;43.154;25.658;2023-06-26T00:28:18;100242.47;;;20.75
76713;BMP280;65640;43.154;25.658;2023-06-26T00:30:43;100238.69;;;20.76
76713;BMP280;65640;43.154;25.658;2023-06-26T00:33:09;100241.09;;;20.81
76713;BMP280;65640;43.154;25.658;2023-06-26T00:35:34;100246.50;;;20.85
76713;BMP280;65640;43.154;25.658;2023-06-26T00:38:01;100244.44;;;20.78
76713;BMP280;65640;43.154;25.658;2023-06-26T00:40:26;100238.97;;;20.71
76713;BMP280;65640;43.154;25.658;2023-06-26T00:42:53;100241.56;;;20.68
76713;BMP280;65640;43.154;25.658;2023-06-26T00:45:18;100239.59;;;20.65
76713;BMP280;65640;43.154;25.658;2023-06-26T00:47:44;100233.91;;;20.66
76713;BMP280;65640;43.154;25.658;2023-06-26T00:50:09;100229.97;;;20.60
76713;BMP280;65640;43.154;25.658;2023-06-26T00:52:35;100221.91;;;20.72
76713;BMP280;65640;43.154;25.658;2023-06-26T00:55:01;100230.28;;;20.74
76713;BMP280;65640;43.154;25.658;2023-06-26T00:57:27;100232.81;;;20.67
76713;BMP280;65640;43.154;25.658;2023-06-26T00:59:52;100233.59;;;20.68
76713;BMP280;65640;43.154;25.658;2023-06-26T01:02:18;100234.59;;;20.63
76713;BMP280;65640;43.154;25.658;2023-06-26T01:04:47;100235.47;;;20.67
76713;BMP280;65640;43.154;25.658;2023-06-26T01:07:14;100237.09;;;20.72
76713;BMP280;65640;43.154;25.658;2023-06-26T01:09:40;100248.59;;;20.60
76713;BMP280;65640;43.154;25.658;2023-06-26T01:12:06;100243.94;;;20.57
76713;BMP280;65640;43.154;25.658;2023-06-26T01:14:31;100252.63;;;20.54
76713;BMP280;65640;43.154;25.658;2023-06-26T01:17:00;100251.06;;;20.53
76713;BMP280;65640;43.154;25.658;2023-06-26T01:19:28;100258.91;;;20.46
76713;BMP280;65640;43.154;25.658;2023-06-26T01:22:17;100263.81;;;20.44
76713;BMP280;65640;43.154;25.658;2023-06-26T01:25:05;100261.66;;;20.50
76713;BMP280;65640;43.154;25.658;2023-06-26T01:27:36;100266.63;;;20.35
76713;BMP280;65640;43.154;25.658;2023-06-26T01:30:04;100259.84;;;20.38
76713;BMP280;65640;43.154;25.658;2023-06-26T01:32:31;100269.03;;;20.40
76713;BMP280;65640;43.154;25.658;2023-06-26T01:34:57;100268.25;;;20.40
76713;BMP280;65640;43.154;25.658;2023-06-26T01:37:24;100270.25;;;20.43
76713;BMP280;65640;43.154;25.658;2023-06-26T01:39:49;100260.72;;;20.42
76713;BMP280;65640;43.154;25.658;2023-06-26T01:42:15;100266.03;;;20.42
76713;BMP280;65640;43.154;25.658;2023-06-26T01:44:44;100258.91;;;20.46
76713;BMP280;65640;43.154;25.658;2023-06-26T01:47:12;100260.19;;;20.52
76713;BMP280;65640;43.154;25.658;2023-06-26T01:50:01;100251.94;;;20.57
76713;BMP280;65640;43.154;25.658;2023-06-26T01:55:20;100258.97;;;20.65
76713;BMP280;65640;43.154;25.658;2023-06-26T01:57:47;100258.06;;;20.73
76713;BMP280;65640;43.154;25.658;2023-06-26T02:00:14;100257.59;;;20.71
76713;BMP280;65640;43.154;25.658;2023-06-26T02:02:43;100255.00;;;20.75
76713;BMP280;65640;43.154;25.658;2023-06-26T02:05:09;100250.97;;;20.81
76713;BMP280;65640;43.154;25.658;2023-06-26T02:07:34;100249.59;;;20.87
76713;BMP280;65640;43.154;25.658;2023-06-26T02:09:59;100246.84;;;20.83
76713;BMP280;65640;43.154;25.658;2023-06-26T02:12:25;100261.28;;;20.67
76713;BMP280;65640;43.154;25.658;2023-06-26T02:14:51;100255.72;;;20.56
76713;BMP280;65640;43.154;25.658;2023-06-26T02:17:16;100260.19;;;20.68
76713;BMP280;65640;43.154;25.658;2023-06-26T02:19:42;100257.78;;;20.63
76713;BMP280;65640;43.154;25.658;2023-06-26T02:22:13;100255.63;;;20.68
76713;BMP280;65640;43.154;25.658;2023-06-26T02:24:39;100252.97;;;20.68
76713;BMP280;65640;43.154;25.658;2023-06-26T02:27:04;100248.31;;;20.65
76713;BMP280;65640;43.154;25.658;2023-06-26T02:29:30;100245.66;;;20.65
76713;BMP280;65640;43.154;25.658;2023-06-26T02:31:55;100241.66;;;20.71
76713;BMP280;65640;43.154;25.658;2023-06-26T02:34:20;100241.31;;;20.73
76713;BMP280;65640;43.154;25.658;2023-06-26T02:36:46;100242.75;;;20.70
76713;BMP280;65640;43.154;25.658;2023-06-26T02:39:11;100235.59;;;20.74
76713;BMP280;65640;43.154;25.658;2023-06-26T02:41:36;100240.53;;;20.72
76713;BMP280;65640;43.154;25.658;2023-06-26T02:44:02;100235.13;;;20.69
76713;BMP280;65640;43.154;25.658;2023-06-26T02:46:27;100244.31;;;20.71
76713;BMP280;65640;43.154;25.658;2023-06-26T02:48:53;100248.31;;;20.65
76713;BMP280;65640;43.154;25.658;2023-06-26T02:51:18;100243.44;;;20.67
76713;BMP280;65640;43.154;25.658;2023-06-26T02:53:44;100240.59;;;20.76
76713;BMP280;65640;43.154;25.658;2023-06-26T02:56:09;100246.19;;;20.71
76713;BMP280;65640;43.154;25.658;2023-06-26T02:58:34;100240.09;;;20.70
76713;BMP280;65640;43.154;25.658;2023-06-26T03:01:00;100236.13;;;20.80
76713;BMP280;65640;43.154;25.658;2023-06-26T03:03:25;100241.00;;;20.78
76713;BMP280;65640;43.154;25.658;2023-06-26T03:05:51;100233.22;;;20.69
76713;BMP280;65640;43.154;25.658;2023-06-26T03:08:16;100231.44;;;20.73
76713;BMP280;65640;43.154;25.658;2023-06-26T03:10:41;100235.69;;;20.78
76713;BMP280;65640;43.154;25.658;2023-06-26T03:13:07;100239.31;;;20.85
76713;BMP280;65640;43.154;25.658;2023-06-26T03:15:32;100246.50;;;20.85
76713;BMP280;65640;43.154;25.658;2023-06-26T03:17:58;100242.25;;;21.00
76713;BMP280;65640;43.154;25.658;2023-06-26T03:20:23;100235.81;;;21.01
76713;BMP280;65640;43.154;25.658;2023-06-26T03:22:48;100240.16;;;21.09
76713;BMP280;65640;43.154;25.658;2023-06-26T03:25:14;100240.59;;;21.11
76713;BMP280;65640;43.154;25.658;2023-06-26T03:27:40;100244.19;;;21.18
76713;BMP280;65640;43.154;25.658;2023-06-26T03:30:05;100242.84;;;21.28
76713;BMP280;65640;43.154;25.658;2023-06-26T03:32:31;100244.03;;;21.30
76713;BMP280;65640;43.154;25.658;2023-06-26T03:34:56;100244.53;;;21.36
76713;BMP280;65640;43.154;25.658;2023-06-26T03:37:22;100249.06;;;21.35
76713;BMP280;65640;43.154;25.658;2023-06-26T03:39:47;100248.31;;;21.35
76713;BMP280;65640;43.154;25.658;2023-06-26T03:42:13;100254.97;;;21.25
76713;BMP280;65640;43.154;25.658;2023-06-26T03:44:38;100250.41;;;21.26
76713;BMP280;65640;43.154;25.658;2023-06-26T03:47:03;100251.34;;;21.33
76713;BMP280;65640;43.154;25.658;2023-06-26T03:49:29;100247.75;;;21.26
76713;BMP280;65640;43.154;25.658;2023-06-26T03:51:54;100249.63;;;21.25
76713;BMP280;65640;43.154;25.658;2023-06-26T03:54:20;100251.84;;;21.23
76713;BMP280;65640;43.154;25.658;2023-06-26T03:56:45;100244.91;;;21.19
76713;BMP280;65640;43.154;25.658;2023-06-26T03:59:10;100247.97;;;21.17
76713;BMP280;65640;43.154;25.658;2023-06-26T04:01:37;100249.41;;;21.15
76713;BMP280;65640;43.154;25.658;2023-06-26T04:04:03;100255.44;;;21.12
76713;BMP280;65640;43.154;25.658;2023-06-26T04:06:28;100256.06;;;21.05
76713;BMP280;65640;43.154;25.658;2023-06-26T04:08:56;100248.84;;;21.06
76713;BMP280;65640;43.154;25.658;2023-06-26T04:11:22;100253.41;;;21.05
76713;BMP280;65640;43.154;25.658;2023-06-26T04:13:47;100245.56;;;21.12
76713;BMP280;65640;43.154;25.658;2023-06-26T04:16:13;100248.66;;;21.14
76713;BMP280;65640;43.154;25.658;2023-06-26T04:18:38;100250.34;;;21.22
76713;BMP280;65640;43.154;25.658;2023-06-26T04:21:12;100242.84;;;21.28
76713;BMP280;65640;43.154;25.658;2023-06-26T04:23:38;100253.16;;;21.29
76713;BMP280;65640;43.154;25.658;2023-06-26T04:26:05;100254.06;;;21.37
76713;BMP280;65640;43.154;25.658;2023-06-26T04:28:31;100246.06;;;21.37
76713;BMP280;65640;43.154;25.658;2023-06-26T04:30:57;100248.81;;;21.40
76713;BMP280;65640;43.154;25.658;2023-06-26T04:33:24;100240.75;;;21.37
76713;BMP280;65640;43.154;25.658;2023-06-26T04:35:50;100244.19;;;21.37
76713;BMP280;65640;43.154;25.658;2023-06-26T04:38:16;100242.97;;;21.35
76713;BMP280;65640;43.154;25.658;2023-06-26T04:40:41;100248.75;;;21.37
76713;BMP280;65640;43.154;25.658;2023-06-26T04:43:07;100249.16;;;21.39
76713;BMP280;65640;43.154;25.658;2023-06-26T04:45:32;100250.81;;;21.47
76713;BMP280;65640;43.154;25.658;2023-06-26T04:47:57;100246.63;;;21.46
76713;BMP280;65640;43.154;25.658;2023-06-26T04:50:25;100243.25;;;21.49
76713;BMP280;65640;43.154;25.658;2023-06-26T04:52:53;100247.16;;;21.55
76713;BMP280;65640;43.154;25.658;2023-06-26T04:55:18;100254.59;;;21.65
76713;BMP280;65640;43.154;25.658;2023-06-26T04:57:44;100252.78;;;21.69
76713;BMP280;65640;43.154;25.658;2023-06-26T05:00:10;100263.44;;;21.69
76713;BMP280;65640;43.154;25.658;2023-06-26T05:02:36;100265.06;;;21.74
76713;BMP280;65640;43.154;25.658;2023-06-26T05:05:01;100271.38;;;21.88
76713;BMP280;65640;43.154;25.658;2023-06-26T05:07:27;100271.78;;;21.90
76713;BMP280;65640;43.154;25.658;2023-06-26T05:09:52;100272.13;;;21.85
76713;BMP280;65640;43.154;25.658;2023-06-26T05:12:18;100273.94;;;21.81
76713;BMP280;65640;43.154;25.658;2023-06-26T05:14:43;100284.44;;;21.93
76713;BMP280;65640;43.154;25.658;2023-06-26T05:17:09;100278.22;;;21.86
76713;BMP280;65640;43.154;25.658;2023-06-26T05:19:34;100284.97;;;21.80
76713;BMP280;65640;43.154;25.658;2023-06-26T05:22:01;100288.34;;;21.77
76713;BMP280;65640;43.154;25.658;2023-06-26T05:24:30;100291.53;;;21.67
76713;BMP280;65640;43.154;25.658;2023-06-26T05:26:55;100295.00;;;21.48
76713;BMP280;65640;43.154;25.658;2023-06-26T05:29:21;100298.94;;;21.54
76713;BMP280;65640;43.154;25.658;2023-06-26T05:31:49;100294.53;;;21.62
76713;BMP280;65640;43.154;25.658;2023-06-26T05:34:15;100297.38;;;21.72
76713;BMP280;65640;43.154;25.658;2023-06-26T05:36:42;100291.16;;;21.87
76713;BMP280;65640;43.154;25.658;2023-06-26T05:39:09;100295.25;;;22.01
76713;BMP280;65640;43.154;25.658;2023-06-26T05:41:34;100301.50;;;22.12
76713;BMP280;65640;43.154;25.658;2023-06-26T05:44:00;100301.81;;;22.07
76713;BMP280;65640;43.154;25.658;2023-06-26T05:46:26;100306.13;;;22.15
76713;BMP280;65640;43.154;25.658;2023-06-26T05:48:51;100306.38;;;22.29
76713;BMP280;65640;43.154;25.658;2023-06-26T05:51:17;100302.84;;;22.44
76713;BMP280;65640;43.154;25.658;2023-06-26T05:53:42;100306.81;;;22.57
76713;BMP280;65640;43.154;25.658;2023-06-26T05:56:08;100304.16;;;22.57
76713;BMP280;65640;43.154;25.658;2023-06-26T05:58:34;100303.16;;;22.65
76713;BMP280;65640;43.154;25.658;2023-06-26T06:01:00;100307.00;;;22.68
76713;BMP280;65640;43.154;25.658;2023-06-26T06:03:25;100311.34;;;22.79
76713;BMP280;65640;43.154;25.658;2023-06-26T06:05:51;100303.63;;;22.97
76713;BMP280;65640;43.154;25.658;2023-06-26T06:08:16;100303.22;;;22.98
76713;BMP280;65640;43.154;25.658;2023-06-26T06:10:42;100303.44;;;22.86
76713;BMP280;65640;43.154;25.658;2023-06-26T06:13:08;100304.88;;;22.80
76713;BMP280;65640;43.154;25.658;2023-06-26T06:15:33;100302.16;;;23.03
76713;BMP280;65640;43.154;25.658;2023-06-26T06:17:58;100307.88;;;23.05
76713;BMP280;65640;43.154;25.658;2023-06-26T06:20:24;100301.38;;;23.02
76713;BMP280;65640;43.154;25.658;2023-06-26T06:22:50;100305.75;;;23.14
76713;BMP280;65640;43.154;25.658;2023-06-26T06:25:15;100304.09;;;23.36
76713;BMP280;65640;43.154;25.658;2023-06-26T06:27:41;100305.84;;;23.54
76713;BMP280;65640;43.154;25.658;2023-06-26T06:30:07;100296.81;;;23.70
76713;BMP280;65640;43.154;25.658;2023-06-26T06:32:33;100300.81;;;23.86
76713;BMP280;65640;43.154;25.658;2023-06-26T06:34:58;100304.22;;;23.83
76713;BMP280;65640;43.154;25.658;2023-06-26T06:37:24;100293.66;;;23.97
76713;BMP280;65640;43.154;25.658;2023-06-26T06:39:49;100290.28;;;24.04
76713;BMP280;65640;43.154;25.658;2023-06-26T06:42:15;100293.75;;;24.08
76713;BMP280;65640;43.154;25.658;2023-06-26T06:44:40;100291.06;;;24.08
76713;BMP280;65640;43.154;25.658;2023-06-26T06:47:05;100297.25;;;24.16
76713;BMP280;65640;43.154;25.658;2023-06-26T06:49:31;100302.34;;;24.35
76713;BMP280;65640;43.154;25.658;2023-06-26T06:51:56;100302.81;;;24.44
76713;BMP280;65640;43.154;25.658;2023-06-26T06:54:26;100299.28;;;24.29
76713;BMP280;65640;43.154;25.658;2023-06-26T06:56:51;100297.44;;;24.40
76713;BMP280;65640;43.154;25.658;2023-06-26T06:59:17;100306.63;;;24.43
76713;BMP280;65640;43.154;25.658;2023-06-26T07:01:42;100313.97;;;24.53
76713;BMP280;65640;43.154;25.658;2023-06-26T07:04:07;100314.00;;;24.60
76713;BMP280;65640;43.154;25.658;2023-06-26T07:06:33;100311.34;;;24.63
76713;BMP280;65640;43.154;25.658;2023-06-26T07:08:59;100314.78;;;24.64
76713;BMP280;65640;43.154;25.658;2023-06-26T07:11:24;100305.91;;;24.49
76713;BMP280;65640;43.154;25.658;2023-06-26T07:13:50;100313.63;;;24.54
76713;BMP280;65640;43.154;25.658;2023-06-26T07:16:15;100315.09;;;24.48
76713;BMP280;65640;43.154;25.658;2023-06-26T07:18:41;100317.03;;;24.51
76713;BMP280;65640;43.154;25.658;2023-06-26T07:21:07;100320.81;;;24.47
76713;BMP280;65640;43.154;25.658;2023-06-26T07:23:32;100312.72;;;24.40
76713;BMP280;65640;43.154;25.658;2023-06-26T07:25:58;100316.44;;;24.25
76713;BMP280;65640;43.154;25.658;2023-06-26T07:28:24;100319.56;;;24.30
76713;BMP280;65640;43.154;25.658;2023-06-26T07:30:49;100315.06;;;24.45
76713;BMP280;65640;43.154;25.658;2023-06-26T07:33:15;100318.88;;;24.44
76713;BMP280;65640;43.154;25.658;2023-06-26T07:35:40;100320.91;;;24.61
76713;BMP280;65640;43.154;25.658;2023-06-26T07:38:05;100323.13;;;24.48
76713;BMP280;65640;43.154;25.658;2023-06-26T07:40:31;100323.53;;;24.57
76713;BMP280;65640;43.154;25.658;2023-06-26T07:42:56;100320.59;;;24.70
76713;BMP280;65640;43.154;25.658;2023-06-26T07:45:23;100322.78;;;24.57
76713;BMP280;65640;43.154;25.658;2023-06-26T07:47:48;100319.63;;;24.41
76713;BMP280;65640;43.154;25.658;2023-06-26T07:50:14;100327.78;;;24.62
76713;BMP280;65640;43.154;25.658;2023-06-26T07:52:44;100327.22;;;24.90
76713;BMP280;65640;43.154;25.658;2023-06-26T07:55:10;100323.06;;;25.06
76713;BMP280;65640;43.154;25.658;2023-06-26T07:57:35;100318.28;;;25.58
76713;BMP280;65640;43.154;25.658;2023-06-26T08:00:01;100325.19;;;26.08
76713;BMP280;65640;43.154;25.658;2023-06-26T08:02:26;100322.53;;;26.33
76713;BMP280;65640;43.154;25.658;2023-06-26T08:04:52;100321.75;;;26.32
76713;BMP280;65640;43.154;25.658;2023-06-26T08:07:17;100323.28;;;26.30
76713;BMP280;65640;43.154;25.658;2023-06-26T08:09:44;100316.34;;;26.50
76713;BMP280;65640;43.154;25.658;2023-06-26T08:12:09;100323.63;;;26.53
76713;BMP280;65640;43.154;25.658;2023-06-26T08:14:34;100320.97;;;26.14
76713;BMP280;65640;43.154;25.658;2023-06-26T08:17:00;100322.50;;;26.08
76713;BMP280;65640;43.154;25.658;2023-06-26T08:19:25;100325.59;;;26.21
76713;BMP280;65640;43.154;25.658;2023-06-26T08:21:50;100320.19;;;26.31
76713;BMP280;65640;43.154;25.658;2023-06-26T08:24:16;100320.94;;;26.35
76713;BMP280;65640;43.154;25.658;2023-06-26T08:26:44;100317.09;;;26.47
76713;BMP280;65640;43.154;25.658;2023-06-26T08:29:11;100317.81;;;26.69
76713;BMP280;65640;43.154;25.658;2023-06-26T08:31:36;100316.94;;;27.00
76713;BMP280;65640;43.154;25.658;2023-06-26T08:34:03;100323.00;;;27.18
76713;BMP280;65640;43.154;25.658;2023-06-26T08:36:28;100317.31;;;27.68
76713;BMP280;65640;43.154;25.658;2023-06-26T08:38:54;100314.88;;;27.84
76713;BMP280;65640;43.154;25.658;2023-06-26T08:41:19;100312.66;;;27.72
76713;BMP280;65640;43.154;25.658;2023-06-26T08:43:45;100310.72;;;27.72
76713;BMP280;65640;43.154;25.658;2023-06-26T08:46:10;100314.13;;;27.25
76713;BMP280;65640;43.154;25.658;2023-06-26T08:48:36;100316.94;;;27.00
76713;BMP280;65640;43.154;25.658;2023-06-26T08:51:09;100310.03;;;26.96
76713;BMP280;65640;43.154;25.658;2023-06-26T08:53:50;100314.38;;;26.79
76713;BMP280;65640;43.154;25.658;2023-06-26T08:56:17;100308.66;;;26.52
76713;BMP280;65640;43.154;25.658;2023-06-26T08:58:46;100304.84;;;26.43
76713;BMP280;65640;43.154;25.658;2023-06-26T09:01:12;100312.53;;;26.02
76713;BMP280;65640;43.154;25.658;2023-06-26T09:03:38;100304.91;;;26.07
76713;BMP280;65640;43.154;25.658;2023-06-26T09:06:03;100311.00;;;26.25
76713;BMP280;65640;43.154;25.658;2023-06-26T09:08:28;100312.53;;;26.05
76713;BMP280;65640;43.154;25.658;2023-06-26T09:10:54;100309.09;;;26.08
76713;BMP280;65640;43.154;25.658;2023-06-26T09:13:19;100314.84;;;26.17
76713;BMP280;65640;43.154;25.658;2023-06-26T09:15:45;100311.78;;;25.94
76713;BMP280;65640;43.154;25.658;2023-06-26T09:18:12;100316.38;;;25.97
76713;BMP280;65640;43.154;25.658;2023-06-26T09:20:37;100318.31;;;26.14
76713;BMP280;65640;43.154;25.658;2023-06-26T09:23:03;100310.25;;;26.07
76713;BMP280;65640;43.154;25.658;2023-06-26T09:25:28;100313.31;;;26.16
76713;BMP280;65640;43.154;25.658;2023-06-26T09:27:55;100306.38;;;26.37
76713;BMP280;65640;43.154;25.658;2023-06-26T09:30:20;100312.13;;;26.53
76713;BMP280;65640;43.154;25.658;2023-06-26T09:32:46;100305.44;;;27.00
76713;BMP280;65640;43.154;25.658;2023-06-26T09:35:12;100315.84;;;27.56
76713;BMP280;65640;43.154;25.658;2023-06-26T09:37:37;100305.56;;;27.92
76713;BMP280;65640;43.154;25.658;2023-06-26T09:40:04;100307.56;;;27.84
76713;BMP280;65640;43.154;25.658;2023-06-26T09:42:32;100298.75;;;27.77
76713;BMP280;65640;43.154;25.658;2023-06-26T09:44:58;100299.84;;;27.86
76713;BMP280;65640;43.154;25.658;2023-06-26T09:47:23;100298.28;;;27.89
76713;BMP280;65640;43.154;25.658;2023-06-26T09:49:49;100297.44;;;27.47
76713;BMP280;65640;43.154;25.658;2023-06-26T09:52:16;100301.22;;;27.61
76713;BMP280;65640;43.154;25.658;2023-06-26T09:54:42;100296.66;;;27.50
76713;BMP280;65640;43.154;25.658;2023-06-26T09:57:17;100294.03;;;27.43
76713;BMP280;65640;43.154;25.658;2023-06-26T09:59:43;100296.69;;;27.95
76713;BMP280;65640;43.154;25.658;2023-06-26T10:02:10;100295.03;;;28.45
76713;BMP280;65640;43.154;25.658;2023-06-26T10:04:37;100295.16;;;28.65
76713;BMP280;65640;43.154;25.658;2023-06-26T10:07:05;100280.66;;;28.86
76713;BMP280;65640;43.154;25.658;2023-06-26T10:09:31;100290.53;;;28.99
76713;BMP280;65640;43.154;25.658;2023-06-26T10:12:10;100285.53;;;29.24
76713;BMP280;65640;43.154;25.658;2023-06-26T10:14:39;100281.63;;;29.52
76713;BMP280;65640;43.154;25.658;2023-06-26T10:17:09;100280.28;;;29.64
76713;BMP280;65640;43.154;25.658;2023-06-26T10:19:37;100285.94;;;28.96
76713;BMP280;65640;43.154;25.658;2023-06-26T10:22:05;100282.53;;;28.89
76713;BMP280;65640;43.154;25.658;2023-06-26T10:24:33;100275.81;;;29.04
76713;BMP280;65640;43.154;25.658;2023-06-26T10:27:03;100276.06;;;28.83
76713;BMP280;65640;43.154;25.658;2023-06-26T10:29:30;100282.53;;;27.91
76713;BMP280;65640;43.154;25.658;2023-06-26T10:31:58;100268.22;;;27.49
76713;BMP280;65640;43.154;25.658;2023-06-26T10:34:25;100274.25;;;27.09
76713;BMP280;65640;43.154;25.658;2023-06-26T10:37:00;100265.13;;;26.89
76713;BMP280;65640;43.154;25.658;2023-06-26T10:39:51;100266.31;;;26.88
76713;BMP280;65640;43.154;25.658;2023-06-26T10:42:34;100268.28;;;27.42
76713;BMP280;65640;43.154;25.658;2023-06-26T10:45:19;100269.22;;;28.14
76713;BMP280;65640;43.154;25.658;2023-06-26T10:47:46;100254.50;;;28.22
76713;BMP280;65640;43.154;25.658;2023-06-26T10:50:25;100249.28;;;28.08
76713;BMP280;65640;43.154;25.658;2023-06-26T10:53:13;100250.22;;;28.28
76713;BMP280;65640;43.154;25.658;2023-06-26T10:55:47;100247.13;;;28.30
76713;BMP280;65640;43.154;25.658;2023-06-26T11:01:20;100241.47;;;28.51
76713;BMP280;65640;43.154;25.658;2023-06-26T11:04:06;100239.44;;;29.12
76713;BMP280;65640;43.154;25.658;2023-06-26T11:06:32;100235.50;;;29.43
76713;BMP280;65640;43.154;25.658;2023-06-26T11:14:26;100231.03;;;28.53
76713;BMP280;65640;43.154;25.658;2023-06-26T11:16:58;100228.41;;;28.16
76713;BMP280;65640;43.154;25.658;2023-06-26T11:19:25;100230.13;;;27.58
76713;BMP280;65640;43.154;25.658;2023-06-26T11:21:52;100223.81;;;27.27
76713;BMP280;65640;43.154;25.658;2023-06-26T11:24:18;100226.03;;;27.39
76713;BMP280;65640;43.154;25.658;2023-06-26T11:26:44;100224.38;;;27.97
76713;BMP280;65640;43.154;25.658;2023-06-26T11:29:10;100228.25;;;28.60
76713;BMP280;65640;43.154;25.658;2023-06-26T11:31:38;100217.41;;;28.94
76713;BMP280;65640;43.154;25.658;2023-06-26T11:34:05;100210.41;;;29.46
76713;BMP280;65640;43.154;25.658;2023-06-26T11:36:32;100221.19;;;29.69
76713;BMP280;65640;43.154;25.658;2023-06-26T11:39:00;100215.63;;;29.76
76713;BMP280;65640;43.154;25.658;2023-06-26T11:41:28;100215.22;;;29.35
76713;BMP280;65640;43.154;25.658;2023-06-26T11:43:54;100212.84;;;29.37
76713;BMP280;65640;43.154;25.658;2023-06-26T11:46:21;100212.91;;;29.33
76713;BMP280;65640;43.154;25.658;2023-06-26T11:48:48;100213.44;;;29.02
76713;BMP280;65640;43.154;25.658;2023-06-26T11:51:14;100216.97;;;28.68
76713;BMP280;65640;43.154;25.658;2023-06-26T11:53:44;100215.75;;;28.46
76713;BMP280;65640;43.154;25.658;2023-06-26T11:56:17;100211.19;;;28.40
76713;BMP280;65640;43.154;25.658;2023-06-26T11:58:56;100218.06;;;28.44
76713;BMP280;65640;43.154;25.658;2023-06-26T12:01:22;100210.53;;;28.89
76713;BMP280;65640;43.154;25.658;2023-06-26T12:03:49;100213.81;;;29.00
76713;BMP280;65640;43.154;25.658;2023-06-26T12:06:15;100195.72;;;29.01
76713;BMP280;65640;43.154;25.658;2023-06-26T12:08:41;100205.03;;;28.96
76713;BMP280;65640;43.154;25.658;2023-06-26T12:11:07;100199.00;;;29.12
76713;BMP280;65640;43.154;25.658;2023-06-26T12:13:32;100193.50;;;29.19
76713;BMP280;65640;43.154;25.658;2023-06-26T12:15:58;100195.72;;;29.01
76713;BMP280;65640;43.154;25.658;2023-06-26T12:18:23;100193.41;;;29.49
76713;BMP280;65640;43.154;25.658;2023-06-26T12:20:51;100184.56;;;29.68
76713;BMP280;65640;43.154;25.658;2023-06-26T12:23:16;100188.53;;;29.17
76713;BMP280;65640;43.154;25.658;2023-06-26T12:25:42;100200.91;;;28.61
76713;BMP280;65640;43.154;25.658;2023-06-26T12:28:17;100207.28;;;28.14
76713;BMP280;65640;43.154;25.658;2023-06-26T12:33:31;100220.66;;;27.84
76713;BMP280;65640;43.154;25.658;2023-06-26T12:35:56;100233.75;;;27.37
76713;BMP280;65640;43.154;25.658;2023-06-26T12:38:22;100249.16;;;26.57
76713;BMP280;65640;43.154;25.658;2023-06-26T12:40:47;100259.25;;;25.93
76713;BMP280;65640;43.154;25.658;2023-06-26T12:43:22;100306.47;;;24.22
76713;BMP280;65640;43.154;25.658;2023-06-26T12:45:48;100306.47;;;23.41
76713;BMP280;65640;43.154;25.658;2023-06-26T12:48:13;100315.50;;;22.73
76713;BMP280;65640;43.154;25.658;2023-06-26T12:50:45;100345.88;;;21.43
76713;BMP280;65640;43.154;25.658;2023-06-26T12:53:11;100354.75;;;20.97
76713;BMP280;65640;43.154;25.658;2023-06-26T12:55:36;100362.38;;;20.51
76713;BMP280;65640;43.154;25.658;2023-06-26T12:58:02;100369.19;;;20.21
76713;BMP280;65640;43.154;25.658;2023-06-26T13:00:27;100368.28;;;20.01
76713;BMP280;65640;43.154;25.658;2023-06-26T13:02:52;100365.97;;;20.00
76713;BMP280;65640;43.154;25.658;2023-06-26T13:05:18;100370.28;;;20.04
76713;BMP280;65640;43.154;25.658;2023-06-26T13:07:44;100373.97;;;20.15
76713;BMP280;65640;43.154;25.658;2023-06-26T13:10:09;100373.56;;;20.29
76713;BMP280;65640;43.154;25.658;2023-06-26T13:12:35;100379.91;;;20.52
76713;BMP280;65640;43.154;25.658;2023-06-26T13:15:00;100374.19;;;20.81
76713;BMP280;65640;43.154;25.658;2023-06-26T13:17:26;100373.47;;;21.00
76713;BMP280;65640;43.154;25.658;2023-06-26T13:19:51;100353.19;;;21.11
76713;BMP280;65640;43.154;25.658;2023-06-26T13:22:16;100356.41;;;21.36
76713;BMP280;65640;43.154;25.658;2023-06-26T13:24:42;100348.97;;;21.45
76713;BMP280;65640;43.154;25.658;2023-06-26T13:27:07;100341.50;;;21.70
76713;BMP280;65640;43.154;25.658;2023-06-26T13:29:33;100336.28;;;21.96
76713;BMP280;65640;43.154;25.658;2023-06-26T13:31:58;100328.88;;;22.09
76713;BMP280;65640;43.154;25.658;2023-06-26T13:34:24;100328.59;;;22.14
76713;BMP280;65640;43.154;25.658;2023-06-26T13:36:52;100323.94;;;22.30
76713;BMP280;65640;43.154;25.658;2023-06-26T13:39:18;100324.97;;;22.48
76713;BMP280;65640;43.154;25.658;2023-06-26T13:41:44;100320.47;;;22.52
76713;BMP280;65640;43.154;25.658;2023-06-26T13:44:09;100330.56;;;22.62
76713;BMP280;65640;43.154;25.658;2023-06-26T13:46:35;100325.63;;;22.64
76713;BMP280;65640;43.154;25.658;2023-06-26T13:49:01;100325.34;;;22.69
76713;BMP280;65640;43.154;25.658;2023-06-26T13:51:26;100311.06;;;22.84
76713;BMP280;65640;43.154;25.658;2023-06-26T13:53:51;100299.06;;;23.01
76713;BMP280;65640;43.154;25.658;2023-06-26T13:56:17;100298.56;;;23.18